Time;durP1;ratioP1;P1;durP2;ratioP2;P2;SDS_P1;SDS_P2;PMS_P1;PMS_P2;Temp;Humidity;BMP_temperature;BMP_pressure;BME280_temperature;BME280_humidity;BME280_pressure;Samples;Min_cycle;Max_cycle;Signal;HPM_P1;HPM_P2
2022/04/20 00:01:04;;;;;;;9.70;6.05;;;12.60;53.90;;;;;;5019027;28;20044;-78
2022/04/20 00:03:31;;;;;;;11.23;6.22;;;12.60;54.00;;;;;;5029211;28;20610;-77
2022/04/20 00:05:57;;;;;;;9.63;5.82;;;12.50;53.90;;;;;;5028986;28;20491;-77
2022/04/20 00:08:22;;;;;;;9.98;5.80;;;12.50;53.80;;;;;;5033976;28;20030;-76
2022/04/20 00:10:48;;;;;;;10.55;5.80;;;12.50;54.00;;;;;;5028465;28;20033;-76
2022/04/20 00:13:13;;;;;;;9.32;5.38;;;12.40;53.60;;;;;;5021865;28;20041;-74
2022/04/20 00:15:39;;;;;;;9.18;5.32;;;12.50;53.20;;;;;;5025584;28;20045;-74
2022/04/20 00:18:05;;;;;;;11.70;5.43;;;12.50;53.10;;;;;;5028239;28;20032;-74
2022/04/20 00:20:31;;;;;;;9.68;5.80;;;12.60;53.30;;;;;;5026467;28;20127;-74
2022/04/20 00:22:56;;;;;;;10.55;5.80;;;12.50;53.00;;;;;;5022976;28;20108;-75
2022/04/20 00:25:22;;;;;;;8.60;5.55;;;12.50;52.80;;;;;;5020852;28;20029;-74
2022/04/20 00:27:47;;;;;;;12.73;5.88;;;12.50;52.80;;;;;;5017413;28;20523;-75
2022/04/20 00:30:13;;;;;;;9.85;5.43;;;12.50;52.80;;;;;;5024579;28;20033;-76
2022/04/20 00:32:40;;;;;;;8.05;5.45;;;12.40;53.20;;;;;;5030078;28;20044;-75
2022/04/20 00:35:12;;;;;;;10.43;5.53;;;12.40;53.10;;;;;;5020170;28;20028;-75
2022/04/20 00:37:40;;;;;;;9.05;5.70;;;12.40;53.20;;;;;;5020374;28;20053;-75
2022/04/20 00:40:06;;;;;;;8.55;5.57;;;12.40;53.40;;;;;;5024659;28;20038;-75
2022/04/20 00:42:32;;;;;;;8.75;6.05;;;12.40;53.40;;;;;;5024187;28;20041;-75
2022/04/20 00:44:59;;;;;;;8.93;6.05;;;12.40;53.80;;;;;;5027195;28;20042;-76
2022/04/20 00:47:25;;;;;;;10.52;6.45;;;12.30;54.10;;;;;;5022413;28;20276;-76
2022/04/20 00:49:51;;;;;;;12.30;5.95;;;12.20;54.50;;;;;;5022160;28;20416;-75
2022/04/20 00:52:17;;;;;;;12.27;5.82;;;12.20;55.00;;;;;;5031258;28;20039;-76
2022/04/20 00:54:43;;;;;;;10.13;5.88;;;12.20;55.00;;;;;;5022445;28;20505;-75
2022/04/20 00:57:09;;;;;;;8.75;5.97;;;12.10;55.10;;;;;;5018307;28;20056;-76
2022/04/20 00:59:36;;;;;;;9.98;6.28;;;12.10;55.50;;;;;;5025662;28;20053;-76
2022/04/20 01:02:03;;;;;;;9.13;6.63;;;12.00;55.70;;;;;;5025035;28;20397;-76
2022/04/20 01:04:31;;;;;;;11.82;7.35;;;12.00;56.00;;;;;;5030782;28;20165;-76
2022/04/20 01:07:16;;;;;;;12.60;7.28;;;11.90;56.20;;;;;;5025976;28;20128;-76
2022/04/20 01:09:43;;;;;;;11.13;6.78;;;11.80;56.30;;;;;;5022605;28;20492;-75
2022/04/20 01:12:10;;;;;;;14.80;8.02;;;11.80;56.50;;;;;;5029332;28;20037;-76
2022/04/20 01:14:36;;;;;;;12.07;7.90;;;11.80;56.70;;;;;;5022189;28;20057;-76
2022/04/20 01:17:03;;;;;;;12.18;7.38;;;11.70;56.80;;;;;;5024636;28;20568;-76
2022/04/20 01:19:38;;;;;;;11.60;6.78;;;11.70;56.70;;;;;;5024854;28;20034;-77
2022/04/20 01:22:05;;;;;;;11.05;6.85;;;11.70;56.90;;;;;;5027499;28;20041;-76
2022/04/20 01:24:31;;;;;;;11.05;7.15;;;11.60;57.00;;;;;;5033341;28;20091;-76
2022/04/20 01:26:57;;;;;;;9.98;6.40;;;11.60;57.20;;;;;;5023330;28;20397;-76
2022/04/20 01:29:25;;;;;;;10.55;6.80;;;11.60;57.20;;;;;;5026118;28;20481;-76
2022/04/20 01:31:51;;;;;;;11.45;6.47;;;11.60;57.00;;;;;;5019541;28;20568;-76
2022/04/20 01:34:16;;;;;;;10.30;7.10;;;11.60;56.90;;;;;;5026297;28;20064;-77
2022/04/20 01:36:42;;;;;;;11.93;6.78;;;11.50;57.20;;;;;;5027779;28;20041;-75
2022/04/20 01:39:08;;;;;;;10.00;5.80;;;11.50;56.90;;;;;;5031485;28;20045;-75
2022/04/20 01:41:33;;;;;;;10.07;6.30;;;11.50;57.00;;;;;;5026372;28;20077;-75
2022/04/20 01:43:59;;;;;;;11.25;6.20;;;11.50;57.00;;;;;;5026468;28;20388;-75
2022/04/20 01:46:25;;;;;;;10.02;6.60;;;11.50;57.00;;;;;;5031342;28;20049;-76
2022/04/20 01:48:50;;;;;;;9.52;6.65;;;11.50;57.00;;;;;;5036755;28;20038;-75
2022/04/20 01:54:00;;;;;;;11.15;7.05;;;11.40;57.90;;;;;;5033951;28;20059;-76
2022/04/20 01:56:26;;;;;;;10.35;7.00;;;11.30;58.20;;;;;;5025635;28;20037;-76
2022/04/20 01:58:52;;;;;;;10.00;6.93;;;11.30;58.30;;;;;;5029099;28;20072;-76
2022/04/20 02:04:01;;;;;;;11.38;6.72;;;11.10;58.10;;;;;;5024199;28;20507;-74
2022/04/20 02:06:27;;;;;;;10.65;7.28;;;11.10;58.10;;;;;;5025459;28;20473;-75
2022/04/20 02:08:53;;;;;;;9.07;6.07;;;11.10;58.00;;;;;;5026115;28;20112;-74
2022/04/20 02:11:18;;;;;;;12.25;6.50;;;11.10;58.00;;;;;;5020220;28;20060;-75
2022/04/20 02:13:44;;;;;;;12.10;6.90;;;11.10;57.90;;;;;;5028557;28;20131;-74
2022/04/20 02:16:10;;;;;;;10.98;6.90;;;11.10;58.00;;;;;;5024628;28;20472;-74
2022/04/20 02:18:35;;;;;;;9.68;6.60;;;11.10;58.40;;;;;;5023690;28;20045;-73
2022/04/20 02:21:01;;;;;;;12.40;6.80;;;11.10;58.60;;;;;;5029831;28;20042;-74
2022/04/20 02:23:26;;;;;;;9.80;6.45;;;11.00;58.90;;;;;;5026635;28;20155;-74
2022/04/20 02:25:53;;;;;;;11.35;6.55;;;11.00;59.20;;;;;;5020149;28;20030;-74
2022/04/20 02:28:19;;;;;;;9.98;7.10;;;10.90;59.50;;;;;;5023996;28;20177;-74
2022/04/20 02:30:44;;;;;;;11.48;7.43;;;10.80;59.90;;;;;;5029187;28;20140;-75
2022/04/20 02:33:10;;;;;;;11.95;7.03;;;10.70;60.00;;;;;;5024947;28;20057;-74
2022/04/20 02:35:37;;;;;;;9.77;6.53;;;10.70;60.40;;;;;;5024812;28;20037;-75
2022/04/20 02:38:03;;;;;;;12.98;7.43;;;10.60;60.50;;;;;;5022311;28;20550;-75
2022/04/20 02:40:30;;;;;;;10.88;7.18;;;10.60;60.60;;;;;;5019745;28;20116;-75
2022/04/20 02:42:56;;;;;;;10.43;6.68;;;10.60;60.80;;;;;;5022853;28;20042;-75
2022/04/20 02:45:22;;;;;;;10.00;7.03;;;10.50;61.00;;;;;;5032381;28;20026;-75
2022/04/20 02:47:48;;;;;;;12.15;7.65;;;10.50;61.10;;;;;;5028081;28;20057;-75
2022/04/20 02:50:14;;;;;;;12.55;7.30;;;10.50;61.20;;;;;;5019490;28;20029;-76
2022/04/20 02:52:39;;;;;;;13.85;7.55;;;10.50;61.00;;;;;;5017846;28;20036;-75
2022/04/20 02:55:05;;;;;;;12.43;7.68;;;10.40;61.10;;;;;;5031577;28;20250;-75
2022/04/20 02:57:31;;;;;;;11.07;7.50;;;10.40;61.20;;;;;;5020874;28;20033;-75
2022/04/20 02:59:57;;;;;;;10.73;7.93;;;10.40;61.20;;;;;;5023685;28;20576;-75
2022/04/20 03:02:22;;;;;;;11.45;7.60;;;10.40;61.20;;;;;;5027409;28;20065;-75
2022/04/20 03:04:48;;;;;;;10.85;6.93;;;10.40;61.20;;;;;;5029958;28;20037;-75
2022/04/20 03:07:13;;;;;;;10.38;7.32;;;10.40;61.30;;;;;;5025724;28;20052;-75
2022/04/20 03:09:39;;;;;;;12.40;7.88;;;10.30;61.50;;;;;;5023368;28;20069;-75
2022/04/20 03:12:05;;;;;;;11.57;7.65;;;10.20;61.80;;;;;;5019908;28;20037;-75
2022/04/20 03:14:31;;;;;;;12.55;8.05;;;10.20;62.10;;;;;;5029673;28;20119;-75
2022/04/20 03:16:56;;;;;;;12.15;8.10;;;10.10;62.30;;;;;;5024713;28;20568;-75
2022/04/20 03:19:22;;;;;;;14.27;7.88;;;10.10;62.50;;;;;;5023148;28;20607;-75
2022/04/20 03:21:48;;;;;;;13.68;8.18;;;10.10;62.80;;;;;;5027299;28;20049;-76
2022/04/20 03:24:13;;;;;;;12.80;7.85;;;10.00;63.00;;;;;;5017558;28;20504;-75
2022/04/20 03:26:39;;;;;;;14.57;8.85;;;10.00;63.30;;;;;;5031603;28;20059;-75
2022/04/20 03:29:05;;;;;;;14.00;9.23;;;9.90;63.50;;;;;;5022516;28;20042;-75
2022/04/20 03:31:32;;;;;;;12.18;8.20;;;9.90;63.50;;;;;;5022100;28;20037;-75
2022/04/20 03:33:57;;;;;;;11.38;8.23;;;9.90;63.50;;;;;;5022210;28;20080;-75
2022/04/20 03:36:23;;;;;;;11.82;8.13;;;9.80;63.50;;;;;;5022955;28;20080;-75
2022/04/20 03:38:48;;;;;;;17.20;10.25;;;9.90;63.70;;;;;;5021054;28;20125;-75
2022/04/20 03:41:14;;;;;;;14.82;9.23;;;9.80;63.80;;;;;;5020401;28;20044;-75
2022/04/20 03:43:40;;;;;;;10.90;7.80;;;9.80;64.10;;;;;;5016683;28;20034;-74
2022/04/20 03:46:06;;;;;;;11.88;7.30;;;9.70;64.20;;;;;;5017924;28;20044;-74
2022/04/20 03:48:31;;;;;;;11.80;7.30;;;9.70;64.50;;;;;;5024044;28;20144;-74
2022/04/20 03:50:57;;;;;;;12.93;8.23;;;9.70;64.70;;;;;;5015559;28;20037;-75
2022/04/20 03:53:23;;;;;;;12.85;8.48;;;9.60;64.80;;;;;;5010431;28;20175;-75
2022/04/20 03:55:48;;;;;;;11.25;7.53;;;9.60;65.00;;;;;;5013708;28;20461;-75
2022/04/20 03:58:14;;;;;;;11.88;7.60;;;9.60;65.10;;;;;;5018869;28;20037;-75
2022/04/20 04:00:40;;;;;;;12.85;7.32;;;9.60;64.90;;;;;;5021023;28;20499;-74
2022/04/20 04:03:05;;;;;;;12.55;8.80;;;9.50;64.70;;;;;;5022595;28;20037;-74
2022/04/20 04:05:32;;;;;;;12.00;7.55;;;9.50;64.70;;;;;;5024180;28;20473;-74
2022/04/20 04:07:57;;;;;;;13.38;8.18;;;9.50;64.60;;;;;;5023709;28;20053;-74
2022/04/20 04:10:23;;;;;;;11.07;7.70;;;9.50;64.40;;;;;;5024019;28;20033;-74
2022/04/20 04:12:49;;;;;;;12.82;8.07;;;9.50;64.50;;;;;;5024476;28;20033;-74
2022/04/20 04:15:14;;;;;;;12.70;7.65;;;9.50;64.20;;;;;;5022049;28;20102;-76
2022/04/20 04:17:40;;;;;;;13.23;7.85;;;9.40;64.00;;;;;;5027986;28;20448;-76
2022/04/20 04:20:07;;;;;;;11.18;7.65;;;9.40;64.20;;;;;;5023996;28;20396;-77
2022/04/20 04:22:35;;;;;;;14.52;8.15;;;9.40;64.00;;;;;;5019350;28;20038;-74
2022/04/20 04:25:01;;;;;;;11.00;6.97;;;9.40;63.70;;;;;;5018787;28;20129;-74
2022/04/20 04:27:27;;;;;;;12.60;7.60;;;9.40;63.60;;;;;;5014776;28;20065;-74
2022/04/20 04:29:53;;;;;;;14.10;7.18;;;9.40;63.50;;;;;;5018561;28;20061;-74
2022/04/20 04:32:19;;;;;;;11.73;6.93;;;9.40;63.40;;;;;;5015091;28;20034;-74
2022/04/20 04:34:44;;;;;;;12.77;7.22;;;9.30;63.40;;;;;;5024034;28;20030;-74
2022/04/20 04:37:13;;;;;;;10.50;6.90;;;9.30;63.40;;;;;;5022233;28;20454;-74
2022/04/20 04:39:39;;;;;;;10.93;6.78;;;9.20;63.30;;;;;;5021543;28;20522;-74
2022/04/20 04:42:04;;;;;;;10.23;6.63;;;9.20;63.00;;;;;;5019534;28;20037;-74
2022/04/20 04:44:32;;;;;;;11.90;7.00;;;9.20;62.90;;;;;;5020310;28;20049;-76
2022/04/20 04:49:42;;;;;;;11.63;7.10;;;9.30;62.60;;;;;;5023528;28;20056;-74
2022/04/20 04:52:11;;;;;;;12.35;7.07;;;9.30;62.60;;;;;;5018266;28;20041;-76
2022/04/20 04:54:39;;;;;;;12.57;7.60;;;9.30;62.40;;;;;;5025171;28;20030;-75
2022/04/20 04:57:07;;;;;;;10.18;7.03;;;9.30;62.40;;;;;;5029073;28;20144;-74
2022/04/20 04:59:34;;;;;;;10.43;6.55;;;9.40;62.40;;;;;;5020442;28;20518;-74
2022/04/20 05:02:00;;;;;;;12.43;6.93;;;9.40;62.30;;;;;;5024275;28;20132;-75
2022/04/20 05:04:25;;;;;;;14.27;7.00;;;9.40;62.30;;;;;;5017046;28;20121;-74
2022/04/20 05:06:51;;;;;;;10.50;7.10;;;9.40;62.40;;;;;;5024457;28;20157;-74
2022/04/20 05:09:17;;;;;;;11.15;7.40;;;9.40;62.50;;;;;;5031502;28;20471;-75
2022/04/20 05:11:42;;;;;;;11.15;7.13;;;9.40;62.60;;;;;;5028981;28;20817;-75
2022/04/20 05:14:09;;;;;;;12.60;6.88;;;9.40;62.80;;;;;;5025099;28;20132;-76
2022/04/20 05:16:34;;;;;;;12.10;7.15;;;9.40;62.80;;;;;;5025077;28;20453;-78
2022/04/20 05:19:00;;;;;;;9.63;6.68;;;9.40;62.80;;;;;;5027889;28;20056;-75
2022/04/20 05:21:25;;;;;;;12.60;6.80;;;9.50;62.80;;;;;;5027121;28;20053;-74
2022/04/20 05:23:54;;;;;;;11.43;7.07;;;9.60;62.50;;;;;;5020210;28;20053;-75
2022/04/20 05:26:21;;;;;;;13.23;6.72;;;9.60;62.60;;;;;;5020670;28;20460;-76
2022/04/20 05:28:46;;;;;;;14.93;7.28;;;9.60;62.50;;;;;;5026316;28;20370;-74
2022/04/20 05:31:12;;;;;;;11.52;7.20;;;9.60;62.30;;;;;;5017704;28;20033;-74
2022/04/20 05:33:37;;;;;;;13.00;6.38;;;9.60;62.20;;;;;;5026871;28;20040;-74
2022/04/20 05:36:03;;;;;;;12.68;7.20;;;9.60;62.10;;;;;;5022947;28;20473;-71
2022/04/20 05:43:57;;;;;;;11.88;6.72;;;9.80;61.40;;;;;;5027976;28;20044;-70
2022/04/20 05:46:23;;;;;;;11.20;6.80;;;9.80;61.10;;;;;;5026995;28;20392;-72
2022/04/20 05:48:49;;;;;;;11.45;6.20;;;9.90;61.10;;;;;;5021566;28;20060;-70
2022/04/20 05:51:14;;;;;;;12.13;7.32;;;9.90;61.00;;;;;;5021343;28;20033;-71
2022/04/20 05:53:40;;;;;;;10.57;6.55;;;9.90;60.90;;;;;;5022286;28;20025;-72
2022/04/20 05:56:06;;;;;;;13.52;7.05;;;10.00;61.00;;;;;;5025723;28;20140;-72
2022/04/20 05:58:31;;;;;;;11.98;6.85;;;10.10;61.10;;;;;;5024858;28;20057;-72
2022/04/20 06:00:57;;;;;;;16.70;8.48;;;10.20;60.50;;;;;;5030986;28;20029;-70
2022/04/20 06:03:23;;;;;;;12.77;6.80;;;10.20;60.70;;;;;;5025848;28;20034;-70
2022/04/20 06:05:48;;;;;;;14.23;6.38;;;10.20;60.70;;;;;;5023530;28;20038;-70
2022/04/20 06:08:14;;;;;;;20.67;7.10;;;10.30;60.30;;;;;;5020090;28;20499;-70
2022/04/20 06:10:40;;;;;;;12.25;6.90;;;10.30;60.40;;;;;;5019707;28;20088;-71
2022/04/20 06:13:06;;;;;;;12.77;7.10;;;10.40;60.00;;;;;;5028393;28;20034;-72
2022/04/20 06:15:32;;;;;;;12.57;6.82;;;10.50;60.00;;;;;;5029290;28;20041;-71
2022/04/20 06:17:58;;;;;;;14.35;6.85;;;10.50;59.60;;;;;;5026881;28;20120;-71
2022/04/20 06:20:23;;;;;;;10.75;6.72;;;10.60;59.70;;;;;;5022317;28;20041;-72
2022/04/20 06:22:49;;;;;;;10.48;6.75;;;10.60;59.30;;;;;;5027962;28;20382;-73
2022/04/20 06:25:15;;;;;;;11.82;6.60;;;10.60;59.10;;;;;;5024895;28;20045;-72
2022/04/20 06:27:40;;;;;;;11.90;6.80;;;10.70;58.70;;;;;;5023182;28;20045;-72
2022/04/20 06:30:06;;;;;;;11.38;7.20;;;10.80;58.40;;;;;;5020695;28;20132;-72
2022/04/20 06:32:32;;;;;;;10.43;6.45;;;10.80;58.20;;;;;;5034135;28;20084;-70
2022/04/20 06:34:58;;;;;;;11.65;6.72;;;10.80;58.10;;;;;;5023847;28;20468;-71
2022/04/20 06:37:24;;;;;;;11.27;6.90;;;10.90;58.60;;;;;;5026143;28;20417;-71
2022/04/20 06:39:50;;;;;;;11.88;6.97;;;10.90;58.10;;;;;;5028970;28;20492;-72
2022/04/20 06:42:16;;;;;;;12.15;6.97;;;11.00;57.90;;;;;;5025022;28;20034;-71
2022/04/20 06:44:42;;;;;;;9.93;7.00;;;11.10;57.80;;;;;;5018322;28;20026;-73
2022/04/20 06:47:07;;;;;;;9.52;6.38;;;11.10;57.80;;;;;;5017094;28;20444;-71
2022/04/20 06:49:33;;;;;;;11.30;6.22;;;11.30;57.00;;;;;;5020416;28;20450;-71
2022/04/20 07:00:12;;;;;;;11.90;6.57;;;11.90;55.00;;;;;;5017914;28;20090;-74
2022/04/20 07:02:38;;;;;;;12.75;6.03;;;12.10;54.30;;;;;;5025127;28;20061;-71
2022/04/20 07:05:05;;;;;;;10.65;6.25;;;12.20;53.80;;;;;;5027546;28;20072;-72
2022/04/20 07:07:31;;;;;;;13.43;6.03;;;12.30;53.70;;;;;;5022292;28;20677;-74
2022/04/20 07:09:56;;;;;;;10.15;6.22;;;12.50;53.40;;;;;;5023461;28;20486;-71
2022/04/20 07:12:22;;;;;;;11.60;6.28;;;12.70;53.40;;;;;;5023158;28;20111;-71
2022/04/20 07:14:48;;;;;;;9.90;5.70;;;12.90;52.60;;;;;;5013346;28;20040;-73
2022/04/20 07:17:13;;;;;;;11.77;6.43;;;13.10;52.70;;;;;;5022091;28;20056;-70
2022/04/20 07:19:39;;;;;;;9.73;6.35;;;13.10;51.40;;;;;;5040631;28;20056;-70
2022/04/20 07:22:05;;;;;;;10.90;7.03;;;13.30;51.40;;;;;;5020591;28;20044;-72
2022/04/20 07:24:31;;;;;;;9.65;6.63;;;13.50;51.80;;;;;;5018102;28;20037;-72
2022/04/20 07:26:56;;;;;;;10.38;6.13;;;13.80;50.90;;;;;;5019682;28;20049;-71
2022/04/20 07:29:22;;;;;;;7.80;5.28;;;13.90;50.20;;;;;;5016369;28;20057;-71
2022/04/20 07:31:48;;;;;;;9.95;5.95;;;13.90;49.70;;;;;;5023144;28;20037;-72
2022/04/20 07:34:13;;;;;;;9.98;5.65;;;14.10;49.10;;;;;;5015540;28;20440;-71
2022/04/20 07:36:39;;;;;;;9.25;5.70;;;14.10;48.90;;;;;;5009686;28;20562;-72
2022/04/20 07:39:05;;;;;;;12.30;5.97;;;14.20;48.60;;;;;;5014421;28;20126;-72
2022/04/20 07:41:30;;;;;;;9.43;6.03;;;14.30;48.60;;;;;;5022867;28;20063;-72
2022/04/20 07:43:56;;;;;;;13.18;6.40;;;14.50;48.40;;;;;;5022240;28;20395;-72
2022/04/20 07:46:22;;;;;;;11.77;5.95;;;14.60;48.10;;;;;;5018252;28;20319;-72
2022/04/20 07:48:48;;;;;;;9.00;6.47;;;14.80;47.20;;;;;;5022636;28;20052;-72
2022/04/20 07:51:14;;;;;;;11.50;6.07;;;14.70;46.60;;;;;;5014622;28;20149;-73
2022/04/20 07:53:40;;;;;;;10.35;5.97;;;14.80;46.80;;;;;;5031194;28;20041;-73
2022/04/20 07:56:06;;;;;;;9.38;6.05;;;14.80;47.20;;;;;;5027668;28;20208;-73
2022/04/20 07:58:32;;;;;;;9.75;5.55;;;14.90;46.90;;;;;;5025860;28;20053;-73
2022/04/20 08:00:58;;;;;;;9.23;5.70;;;15.10;47.00;;;;;;5023868;28;20061;-73
2022/04/20 08:03:24;;;;;;;10.43;5.90;;;15.20;45.70;;;;;;5022109;28;20037;-72
2022/04/20 08:05:52;;;;;;;7.97;5.15;;;15.30;45.70;;;;;;5026152;28;20037;-73
2022/04/20 08:08:18;;;;;;;12.15;6.10;;;15.60;45.70;;;;;;5023701;28;20045;-73
2022/04/20 08:10:45;;;;;;;10.35;6.15;;;15.30;44.80;;;;;;5019991;28;20249;-72
2022/04/20 08:15:55;;;;;;;9.93;5.60;;;15.30;45.20;;;;;;5021882;28;20396;-72
2022/04/20 08:18:21;;;;;;;12.65;6.05;;;15.30;44.20;;;;;;5019739;28;21382;-72
2022/04/20 08:20:48;;;;;;;10.35;5.78;;;15.50;44.90;;;;;;5012564;28;20124;-72
2022/04/20 08:23:15;;;;;;;8.52;5.10;;;15.70;44.10;;;;;;5019509;28;20114;-75
2022/04/20 08:25:43;;;;;;;9.02;5.25;;;16.00;43.70;;;;;;5012970;28;20539;-72
2022/04/20 08:28:10;;;;;;;9.00;5.25;;;16.10;43.50;;;;;;5012238;28;20117;-72
2022/04/20 08:30:37;;;;;;;9.82;5.82;;;16.20;42.80;;;;;;5010890;28;20082;-73
2022/04/20 08:33:07;;;;;;;10.43;5.65;;;16.30;43.30;;;;;;5014690;28;20038;-73
2022/04/20 08:35:35;;;;;;;11.18;5.35;;;16.10;42.80;;;;;;5022877;28;20094;-73
2022/04/20 08:38:01;;;;;;;8.68;5.15;;;16.20;42.80;;;;;;5011945;28;20056;-74
2022/04/20 08:40:28;;;;;;;9.35;5.07;;;16.00;42.70;;;;;;5014241;28;20042;-71
2022/04/20 08:42:54;;;;;;;9.52;5.63;;;16.10;42.10;;;;;;5016408;28;20053;-72
2022/04/20 08:45:21;;;;;;;8.85;5.90;;;16.10;43.50;;;;;;5020241;28;20064;-73
2022/04/20 08:47:49;;;;;;;12.00;5.63;;;16.50;42.80;;;;;;5017780;28;20045;-73
2022/04/20 08:50:15;;;;;;;8.10;5.25;;;16.50;41.00;;;;;;5011324;28;20057;-71
2022/04/20 08:52:43;;;;;;;13.30;5.35;;;16.60;41.90;;;;;;5015818;28;20121;-72
2022/04/20 08:55:13;;;;;;;8.95;5.30;;;16.80;40.50;;;;;;5016793;28;20057;-74
2022/04/20 08:57:40;;;;;;;13.65;5.60;;;16.90;41.60;;;;;;5023331;28;20030;-73
2022/04/20 09:00:12;;;;;;;10.85;5.60;;;16.90;40.00;;;;;;5020158;28;20055;-74
2022/04/20 09:02:38;;;;;;;10.73;6.18;;;17.00;39.90;;;;;;5019321;28;20041;-72
2022/04/20 09:05:05;;;;;;;9.07;5.22;;;17.10;39.80;;;;;;5006991;28;20061;-73
2022/04/20 09:07:31;;;;;;;10.60;5.30;;;17.60;39.30;;;;;;5021011;28;20042;-72
2022/04/20 09:09:58;;;;;;;8.55;4.88;;;17.80;38.80;;;;;;5013770;28;20087;-73
2022/04/20 09:12:25;;;;;;;10.18;5.05;;;18.00;38.20;;;;;;5020483;28;20060;-72
2022/04/20 09:14:52;;;;;;;10.07;5.40;;;18.00;38.30;;;;;;5017674;28;20451;-73
2022/04/20 09:17:20;;;;;;;11.70;5.32;;;18.40;37.40;;;;;;5022650;28;20096;-72
2022/04/20 09:19:48;;;;;;;11.05;5.95;;;18.30;37.50;;;;;;5018516;28;20100;-72
2022/04/20 09:22:18;;;;;;;9.73;5.28;;;18.40;37.40;;;;;;5036235;28;20037;-73
2022/04/20 09:25:06;;;;;;;11.57;5.72;;;18.60;37.30;;;;;;5018467;28;20489;-72
2022/04/20 09:27:36;;;;;;;11.77;6.20;;;18.50;36.30;;;;;;5018647;28;20091;-72
2022/04/20 09:30:04;;;;;;;9.60;5.82;;;18.00;38.20;;;;;;5022821;28;20033;-76
2022/04/20 09:32:35;;;;;;;11.15;6.50;;;17.80;38.60;;;;;;5024743;28;20489;-73
2022/04/20 09:35:03;;;;;;;9.00;5.68;;;17.30;39.20;;;;;;5025890;28;20068;-74
2022/04/20 09:37:31;;;;;;;10.07;5.43;;;17.80;39.80;;;;;;5021352;28;20034;-72
2022/04/20 09:39:57;;;;;;;8.57;5.35;;;18.20;38.10;;;;;;5022394;28;20044;-73
2022/04/20 09:42:24;;;;;;;9.93;5.60;;;17.60;36.80;;;;;;5023208;28;20117;-74
2022/04/20 09:45:04;;;;;;;10.52;5.43;;;17.10;38.50;;;;;;5013469;28;20075;-75
2022/04/20 09:50:22;;;;;;;11.48;5.63;;;17.60;38.00;;;;;;5016626;28;20133;-72
2022/04/20 09:52:49;;;;;;;10.52;4.90;;;17.70;38.00;;;;;;5017642;28;20116;-72
2022/04/20 09:55:33;;;;;;;9.38;5.30;;;18.00;36.40;;;;;;5016219;28;20045;-72
2022/04/20 09:58:10;;;;;;;8.88;4.82;;;18.30;36.50;;;;;;5015951;28;20494;-72
2022/04/20 10:00:54;;;;;;;7.47;5.00;;;18.60;36.30;;;;;;5021163;28;20630;-72
2022/04/20 10:03:31;;;;;;;10.13;5.10;;;19.10;35.10;;;;;;5009346;28;20095;-71
2022/04/20 10:05:59;;;;;;;9.30;5.10;;;18.80;35.00;;;;;;5025618;28;20144;-72
2022/04/20 10:08:25;;;;;;;9.00;5.00;;;18.90;34.50;;;;;;5015275;28;20745;-72
2022/04/20 10:10:55;;;;;;;10.07;4.50;;;18.70;35.10;;;;;;5016235;28;20044;-73
2022/04/20 10:13:22;;;;;;;9.05;4.47;;;18.80;33.80;;;;;;5021381;28;20042;-74
2022/04/20 10:16:10;;;;;;;9.25;4.95;;;18.80;35.40;;;;;;5022196;28;20044;-73
2022/04/20 10:18:40;;;;;;;6.68;4.53;;;19.10;34.20;;;;;;5015372;28;20033;-72
2022/04/20 10:21:13;;;;;;;7.93;4.70;;;19.10;32.70;;;;;;5020002;28;20064;-72
2022/04/20 10:23:47;;;;;;;8.32;4.57;;;18.90;33.80;;;;;;5019469;28;20116;-74
2022/04/20 10:26:14;;;;;;;;;;;19.10;33.90;;;;;;5020468;28;20041;-73
2022/04/20 10:29:10;;;;;;;10.88;4.75;;;19.20;33.00;;;;;;5022048;28;19933;-74
2022/04/20 10:31:53;;;;;;;9.57;4.80;;;19.50;33.60;;;;;;5017128;28;20041;-74
2022/04/20 10:34:21;;;;;;;8.25;3.95;;;19.60;33.20;;;;;;5018111;28;20045;-73
2022/04/20 10:37:02;;;;;;;8.15;4.75;;;19.70;32.40;;;;;;5018330;28;20068;-73
2022/04/20 10:39:33;;;;;;;8.10;4.80;;;19.70;32.70;;;;;;5016588;28;20144;-73
2022/04/20 10:42:11;;;;;;;6.93;4.38;;;19.60;33.30;;;;;;5021052;28;20584;-73
2022/04/20 10:44:55;;;;;;;11.07;4.72;;;19.40;33.30;;;;;;5017092;28;20045;-72
2022/04/20 10:47:28;;;;;;;12.00;5.18;;;19.60;32.60;;;;;;5013856;28;20053;-71
2022/04/20 10:50:13;;;;;;;9.35;5.03;;;19.10;34.00;;;;;;5009970;28;20049;-71
2022/04/20 10:52:41;;;;;;;9.60;5.80;;;19.10;33.70;;;;;;5026612;28;20492;-71
2022/04/20 10:55:11;;;;;;;10.80;5.13;;;19.40;33.70;;;;;;5018438;28;20113;-71
2022/04/20 10:57:40;;;;;;;7.97;4.50;;;19.60;33.90;;;;;;5017891;28;20560;-74
2022/04/20 11:00:17;;;;;;;7.78;4.68;;;19.90;33.90;;;;;;5017501;28;20091;-75
2022/04/20 11:02:55;;;;;;;7.68;4.70;;;20.00;32.80;;;;;;5011115;28;20041;-74
2022/04/20 11:05:22;;;;;;;10.38;4.53;;;19.70;32.90;;;;;;5016062;28;20037;-71
2022/04/20 11:08:05;;;;;;;9.00;4.72;;;19.70;32.80;;;;;;5019478;28;20385;-73
2022/04/20 11:10:33;;;;;;;10.57;5.32;;;19.60;34.00;;;;;;5015688;28;20042;-74
2022/04/20 11:19:10;;;;;;;8.93;4.88;;;19.70;32.30;;;;;;5018186;28;20048;-73
2022/04/20 11:21:36;;;;;;;9.85;5.07;;;19.90;33.60;;;;;;5013545;28;20037;-74
2022/04/20 11:24:06;;;;;;;9.77;5.68;;;19.40;33.50;;;;;;5010959;28;20037;-73
2022/04/20 11:26:51;;;;;;;10.00;5.35;;;19.50;34.50;;;;;;5017078;28;20042;-74
2022/04/20 11:29:18;;;;;;;9.90;4.88;;;19.40;33.50;;;;;;5018636;28;20083;-73
2022/04/20 11:31:58;;;;;;;10.70;5.00;;;18.40;34.50;;;;;;5018868;28;20041;-73
2022/04/20 11:34:28;;;;;;;13.02;5.15;;;18.90;34.90;;;;;;5020910;28;20113;-71
2022/04/20 11:36:57;;;;;;;10.05;4.97;;;18.80;33.80;;;;;;5017288;28;20103;-72
2022/04/20 11:39:25;;;;;;;8.00;4.40;;;19.40;34.80;;;;;;5021414;28;20049;-73
2022/04/20 11:41:52;;;;;;;9.45;4.60;;;19.60;33.90;;;;;;5019193;28;20081;-73
2022/04/20 11:44:23;;;;;;;10.60;4.97;;;20.10;33.20;;;;;;5019524;28;20037;-74
2022/04/20 11:46:49;;;;;;;10.30;5.45;;;20.40;32.70;;;;;;5025012;28;20041;-73
2022/04/20 11:49:16;;;;;;;8.60;6.05;;;19.60;32.70;;;;;;5016702;28;20041;-73
2022/04/20 11:52:00;;;;;;;10.88;6.25;;;18.70;33.80;;;;;;5020041;28;20033;-73
2022/04/20 11:54:30;;;;;;;10.38;5.60;;;18.50;34.50;;;;;;5015018;28;20034;-73
2022/04/20 11:56:56;;;;;;;9.93;5.70;;;18.50;36.20;;;;;;5020027;28;20161;-73
2022/04/20 11:59:24;;;;;;;9.30;5.65;;;19.00;35.30;;;;;;5017408;28;20041;-73
2022/04/20 12:01:51;;;;;;;10.60;5.50;;;18.80;34.70;;;;;;5021635;28;20141;-74
2022/04/20 12:04:25;;;;;;;11.82;5.65;;;18.90;34.50;;;;;;5022565;28;20042;-73
2022/04/20 12:06:56;;;;;;;10.70;5.90;;;19.40;35.00;;;;;;5006984;28;20391;-72
2022/04/20 12:09:24;;;;;;;9.98;6.40;;;19.60;34.60;;;;;;5013654;28;20033;-72
2022/04/20 12:11:57;;;;;;;13.30;6.55;;;19.10;34.80;;;;;;5019796;28;20176;-72
2022/04/20 12:14:26;;;;;;;10.80;6.35;;;18.70;35.10;;;;;;5022307;28;20525;-73
2022/04/20 12:16:57;;;;;;;9.38;5.93;;;19.00;35.50;;;;;;5016494;28;20052;-72
2022/04/20 12:19:23;;;;;;;9.23;5.78;;;19.50;35.20;;;;;;5017374;28;20034;-74
2022/04/20 12:21:51;;;;;;;9.93;5.63;;;19.70;33.90;;;;;;5023963;28;20062;-74
2022/04/20 12:24:25;;;;;;;9.60;5.80;;;19.80;33.60;;;;;;5020145;28;20038;-73
2022/04/20 12:26:53;;;;;;;10.32;6.22;;;20.10;33.30;;;;;;5019089;28;20045;-72
2022/04/20 12:29:22;;;;;;;11.23;6.63;;;19.40;33.70;;;;;;5016492;28;20055;-73
2022/04/20 12:31:51;;;;;;;10.77;6.30;;;18.70;34.20;;;;;;5016076;28;20034;-72
2022/04/20 12:34:19;;;;;;;12.95;6.63;;;18.80;35.40;;;;;;5024168;28;20455;-71
2022/04/20 12:36:54;;;;;;;9.00;6.03;;;19.30;35.20;;;;;;5020740;28;20069;-71
2022/04/20 12:39:32;;;;;;;9.15;6.10;;;19.80;34.50;;;;;;5013000;28;20048;-72
2022/04/20 12:42:01;;;;;;;10.00;5.93;;;20.00;34.10;;;;;;5012881;28;20041;-70
2022/04/20 12:44:36;;;;;;;15.40;6.60;;;20.10;33.80;;;;;;5016524;28;20204;-72
2022/04/20 12:47:08;;;;;;;10.77;6.82;;;19.90;32.40;;;;;;5018552;28;20061;-71
2022/04/20 12:49:34;;;;;;;10.43;6.85;;;19.10;34.20;;;;;;5023259;28;20057;-69
2022/04/20 12:52:15;;;;;;;8.85;6.05;;;19.00;35.50;;;;;;5022447;28;20040;-72
2022/04/20 12:54:53;;;;;;;8.82;6.40;;;19.20;35.00;;;;;;5017981;28;20046;-72
2022/04/20 13:02:58;;;;;;;11.05;6.30;;;19.60;33.80;;;;;;5013213;28;20416;-72
2022/04/20 13:05:24;;;;;;;12.57;6.72;;;19.90;33.90;;;;;;5023279;28;20121;-72
2022/04/20 13:07:50;;;;;;;11.85;6.70;;;20.30;32.70;;;;;;5014160;28;20049;-72
2022/04/20 13:10:17;;;;;;;10.25;6.82;;;19.60;33.70;;;;;;5023877;28;20029;-72
2022/04/20 13:12:55;;;;;;;12.65;6.57;;;19.60;32.90;;;;;;5023662;28;20802;-71
2022/04/20 13:15:22;;;;;;;9.20;6.05;;;19.60;33.60;;;;;;5025910;28;20563;-71
2022/04/20 13:17:48;;;;;;;11.55;6.22;;;19.80;33.60;;;;;;5023859;28;20044;-72
2022/04/20 13:20:16;;;;;;;9.30;5.38;;;19.70;34.10;;;;;;5019245;28;20045;-72
2022/04/20 13:22:42;;;;;;;10.35;5.20;;;19.50;34.30;;;;;;5014493;28;20029;-72
2022/04/20 13:27:54;;;;;;;;;;;20.20;33.10;;;;;;5024974;28;20136;-72